Time;durP1;ratioP1;P1;durP2;ratioP2;P2;SDS_P1;SDS_P2;PMS_P1;PMS_P2;Temp;Humidity;BMP_temperature;BMP_pressure;BME280_temperature;BME280_humidity;BME280_pressure;Samples;Min_cycle;Max_cycle;Signal;HPM_P1;HPM_P2
2024/01/09 00:01:56;;;;;;;10.85;4.90;;;-1.40;99.90;;;;;;5011081;28;20049;-69
2024/01/09 00:04:22;;;;;;;10.75;5.25;;;-1.40;99.90;;;;;;5004603;28;20767;-69
2024/01/09 00:06:49;;;;;;;8.57;4.30;;;-1.40;99.90;;;;;;4997158;28;20050;-69
2024/01/09 00:09:14;;;;;;;7.78;4.47;;;-1.40;99.90;;;;;;4995561;28;20439;-69
2024/01/09 00:11:40;;;;;;;8.48;3.97;;;-1.40;99.90;;;;;;5005232;28;20041;-69
2024/01/09 00:14:05;;;;;;;8.20;4.15;;;-1.50;99.90;;;;;;5006858;28;20101;-68
2024/01/09 00:16:31;;;;;;;9.13;4.60;;;-1.50;99.90;;;;;;5002867;28;20084;-69
2024/01/09 00:18:57;;;;;;;16.05;4.50;;;-1.50;99.90;;;;;;4997435;28;20441;-70
2024/01/09 00:21:23;;;;;;;9.93;4.15;;;-1.50;99.90;;;;;;5005625;28;20038;-69
2024/01/09 00:23:49;;;;;;;8.20;4.22;;;-1.40;99.90;;;;;;4998667;28;20393;-69
2024/01/09 00:26:14;;;;;;;8.65;4.43;;;-1.50;99.90;;;;;;4993553;28;20048;-68
2024/01/09 00:28:40;;;;;;;9.05;4.90;;;-1.50;99.90;;;;;;5006661;28;20502;-68
2024/01/09 00:31:06;;;;;;;12.00;4.47;;;-1.50;99.90;;;;;;5000947;28;20049;-69
2024/01/09 00:33:35;;;;;;;10.63;4.60;;;-1.50;99.90;;;;;;5001253;28;20534;-69
2024/01/09 00:36:03;;;;;;;8.43;4.03;;;-1.50;99.90;;;;;;4994571;28;20149;-69
2024/01/09 00:38:29;;;;;;;9.40;4.18;;;-1.50;99.90;;;;;;5009981;28;20517;-69
2024/01/09 00:40:54;;;;;;;8.50;4.10;;;-1.60;99.90;;;;;;4998844;28;20038;-69
2024/01/09 00:43:20;;;;;;;8.25;3.92;;;-1.60;99.90;;;;;;5005738;28;20034;-69
2024/01/09 00:45:45;;;;;;;11.00;4.25;;;-1.50;99.90;;;;;;4995359;28;20054;-69
2024/01/09 00:48:11;;;;;;;10.75;4.00;;;-1.60;99.90;;;;;;4999985;28;20054;-68
2024/01/09 00:50:37;;;;;;;8.60;4.00;;;-1.60;99.90;;;;;;5005883;28;20545;-69
2024/01/09 00:53:03;;;;;;;8.43;4.30;;;-1.60;99.90;;;;;;5001426;28;20041;-69
2024/01/09 00:55:29;;;;;;;8.43;4.20;;;-1.60;99.90;;;;;;4998489;28;20096;-69
2024/01/09 00:57:54;;;;;;;9.50;4.20;;;-1.60;99.90;;;;;;5002386;28;20088;-69
2024/01/09 01:00:20;;;;;;;7.85;4.00;;;-1.70;99.90;;;;;;4999247;28;20030;-69
2024/01/09 01:02:46;;;;;;;8.93;3.92;;;-1.70;99.90;;;;;;5001390;28;20038;-69
2024/01/09 01:05:15;;;;;;;8.07;3.83;;;-1.70;99.90;;;;;;4991357;28;20037;-69
2024/01/09 01:07:41;;;;;;;7.30;3.33;;;-1.70;99.90;;;;;;5004273;28;20503;-69
2024/01/09 01:10:07;;;;;;;8.40;4.03;;;-1.70;99.90;;;;;;4996911;28;20050;-69
2024/01/09 01:12:33;;;;;;;9.30;3.97;;;-2.00;99.90;;;;;;4991333;28;20041;-69
2024/01/09 01:14:59;;;;;;;9.45;3.70;;;-1.70;99.90;;;;;;4990968;28;20138;-69
2024/01/09 01:17:25;;;;;;;9.40;4.03;;;-1.70;99.90;;;;;;4995622;28;20137;-69
2024/01/09 01:19:50;;;;;;;9.82;3.88;;;-1.80;99.90;;;;;;4997899;28;20052;-68
2024/01/09 01:22:16;;;;;;;9.18;3.85;;;-1.70;99.90;;;;;;4991855;28;20108;-66
2024/01/09 01:24:41;;;;;;;8.77;4.00;;;-1.70;99.90;;;;;;5001837;28;20038;-66
2024/01/09 01:27:07;;;;;;;8.77;4.00;;;-1.80;99.90;;;;;;4998200;28;20414;-66
2024/01/09 01:29:32;;;;;;;9.30;3.88;;;-1.80;99.90;;;;;;4995478;28;20046;-66
2024/01/09 01:31:58;;;;;;;8.65;4.03;;;-1.80;99.90;;;;;;5006001;28;20038;-66
2024/01/09 01:34:24;;;;;;;9.45;3.72;;;-1.80;99.90;;;;;;5009799;28;20042;-66
2024/01/09 01:36:49;;;;;;;8.32;3.63;;;-1.80;99.90;;;;;;5003201;28;20380;-68
2024/01/09 01:39:15;;;;;;;10.07;3.95;;;-1.90;99.90;;;;;;4998188;28;20049;-66
2024/01/09 01:41:41;;;;;;;7.43;3.63;;;-1.90;99.90;;;;;;4994647;28;20037;-66
2024/01/09 01:44:17;;;;;;;8.98;3.42;;;-1.90;99.90;;;;;;4998031;28;20046;-66
2024/01/09 01:46:45;;;;;;;9.30;4.00;;;-1.90;99.90;;;;;;4990872;28;20741;-66
2024/01/09 01:49:12;;;;;;;7.28;3.72;;;-1.90;99.90;;;;;;4995417;28;20081;-66
2024/01/09 01:51:38;;;;;;;8.52;3.70;;;-1.90;99.90;;;;;;5007100;28;20391;-66
2024/01/09 01:54:05;;;;;;;8.80;3.60;;;-0.60;99.90;;;;;;4993200;28;20484;-66
2024/01/09 01:56:31;;;;;;;7.40;3.50;;;-1.90;99.90;;;;;;4992223;28;20042;-66
2024/01/09 01:58:58;;;;;;;6.55;3.35;;;-1.90;99.90;;;;;;4994549;28;20402;-66
2024/01/09 02:01:24;;;;;;;7.40;3.92;;;-2.00;99.90;;;;;;4997500;28;20041;-66
2024/01/09 02:03:50;;;;;;;9.77;3.50;;;-2.00;99.90;;;;;;5002489;28;20113;-66
2024/01/09 02:06:16;;;;;;;7.68;3.60;;;-2.00;99.90;;;;;;5002195;28;20046;-66
2024/01/09 02:08:43;;;;;;;7.07;3.10;;;-2.00;99.90;;;;;;5003781;28;20048;-66
2024/01/09 02:11:10;;;;;;;9.75;3.45;;;-2.00;99.90;;;;;;4997069;28;20045;-66
2024/01/09 02:13:36;;;;;;;7.72;3.50;;;-2.00;99.90;;;;;;5001807;28;20026;-66
2024/01/09 02:16:02;;;;;;;7.03;3.13;;;-2.00;99.90;;;;;;5002958;28;20545;-66
2024/01/09 02:18:28;;;;;;;7.53;3.53;;;-2.00;99.90;;;;;;4994692;28;20038;-66
2024/01/09 02:20:53;;;;;;;7.10;3.40;;;-2.00;99.90;;;;;;4995367;28;20112;-66
2024/01/09 02:23:19;;;;;;;8.20;3.25;;;-2.00;99.90;;;;;;4995189;28;20038;-66
2024/01/09 02:25:46;;;;;;;6.97;3.13;;;-2.00;99.90;;;;;;4998673;28;20400;-66
2024/01/09 02:28:21;;;;;;;8.27;3.20;;;-2.10;99.90;;;;;;5006066;28;20096;-67
2024/01/09 02:30:47;;;;;;;6.85;3.20;;;-2.10;99.90;;;;;;5000959;28;20108;-66
2024/01/09 02:33:14;;;;;;;6.68;3.50;;;-2.10;99.90;;;;;;5006803;28;20046;-67
2024/01/09 02:35:39;;;;;;;7.03;3.20;;;-2.10;99.90;;;;;;4993227;28;20031;-66
2024/01/09 02:38:05;;;;;;;6.43;3.08;;;-2.10;99.90;;;;;;5002312;28;20034;-67
2024/01/09 02:40:30;;;;;;;7.18;3.05;;;-2.10;99.90;;;;;;5005143;28;20033;-66
2024/01/09 02:42:56;;;;;;;8.77;3.00;;;-2.10;99.90;;;;;;5005272;28;20039;-66
2024/01/09 02:45:22;;;;;;;6.40;3.00;;;-2.10;99.90;;;;;;4997460;28;20038;-66
2024/01/09 02:47:47;;;;;;;11.23;3.30;;;-2.10;99.90;;;;;;5007139;28;20046;-66
2024/01/09 02:50:13;;;;;;;6.13;3.05;;;-2.20;99.90;;;;;;5001881;28;20038;-66
2024/01/09 02:52:38;;;;;;;6.43;3.30;;;-0.70;99.90;;;;;;4997708;28;20117;-66
2024/01/09 02:55:04;;;;;;;6.88;3.08;;;-2.20;99.90;;;;;;5005261;28;20436;-66
2024/01/09 02:57:30;;;;;;;8.23;3.30;;;-2.50;99.90;;;;;;5003948;28;20042;-66
2024/01/09 02:59:55;;;;;;;7.25;3.20;;;-2.20;99.90;;;;;;5007039;28;20117;-67
2024/01/09 03:02:21;;;;;;;7.90;3.03;;;-2.20;99.90;;;;;;5009357;28;20030;-66
2024/01/09 03:04:46;;;;;;;11.18;3.15;;;-2.20;99.90;;;;;;4995144;28;20108;-66
2024/01/09 03:07:12;;;;;;;5.63;2.83;;;-1.90;99.90;;;;;;5004461;28;20384;-66
2024/01/09 03:09:37;;;;;;;7.57;2.85;;;-2.30;99.90;;;;;;4998585;28;20049;-66
2024/01/09 03:12:04;;;;;;;6.88;2.72;;;-2.20;99.90;;;;;;5007869;28;20112;-65
2024/01/09 03:14:29;;;;;;;7.28;3.17;;;-2.30;99.90;;;;;;4999976;28;20503;-66
2024/01/09 03:16:55;;;;;;;8.55;3.20;;;-0.60;99.90;;;;;;5009411;28;20042;-66
2024/01/09 03:19:20;;;;;;;6.78;3.00;;;-2.30;99.90;;;;;;5005774;28;20479;-66
2024/01/09 03:21:47;;;;;;;7.05;2.70;;;-2.30;99.90;;;;;;5014045;28;20041;-68
2024/01/09 03:24:13;;;;;;;6.68;2.78;;;-2.30;99.90;;;;;;4992683;28;20508;-66
2024/01/09 03:26:38;;;;;;;7.10;3.35;;;-2.30;99.90;;;;;;5004885;28;20037;-67
2024/01/09 03:29:04;;;;;;;6.88;2.97;;;-2.30;99.90;;;;;;5003750;28;20467;-66
2024/01/09 03:31:30;;;;;;;5.32;2.72;;;-2.30;99.90;;;;;;4999883;28;20038;-66
2024/01/09 03:33:56;;;;;;;5.97;2.78;;;-2.30;99.90;;;;;;4993070;28;20041;-66
2024/01/09 03:36:23;;;;;;;7.60;3.03;;;-2.30;99.90;;;;;;4996745;28;20129;-66
2024/01/09 03:38:50;;;;;;;7.78;3.33;;;-2.40;99.90;;;;;;5007130;28;20050;-67
2024/01/09 03:41:16;;;;;;;6.72;2.88;;;-2.40;99.90;;;;;;5007151;28;20571;-66
2024/01/09 03:43:42;;;;;;;6.47;2.95;;;-2.40;99.90;;;;;;4997181;28;20142;-66
2024/01/09 03:46:07;;;;;;;8.65;3.15;;;-2.40;99.90;;;;;;4997872;28;20052;-66
2024/01/09 03:48:33;;;;;;;5.55;3.05;;;-2.40;99.90;;;;;;4996572;28;20037;-68
2024/01/09 03:50:58;;;;;;;7.22;2.92;;;-2.40;99.90;;;;;;5006296;28;20058;-65
2024/01/09 03:53:24;;;;;;;8.70;3.20;;;-2.40;99.90;;;;;;5000756;28;20034;-66
2024/01/09 03:55:49;;;;;;;8.05;2.75;;;-2.40;99.90;;;;;;5004244;28;20046;-66
2024/01/09 03:58:15;;;;;;;6.32;3.20;;;-2.40;99.90;;;;;;4997671;28;20069;-68
2024/01/09 04:00:41;;;;;;;6.82;2.85;;;-2.40;99.90;;;;;;5008505;28;20030;-66
2024/01/09 04:03:06;;;;;;;7.75;3.47;;;-2.40;99.90;;;;;;5008338;28;20486;-65
2024/01/09 04:05:32;;;;;;;7.18;3.10;;;-2.40;99.90;;;;;;4998171;28;20030;-66
2024/01/09 04:07:58;;;;;;;7.13;3.03;;;-2.40;99.90;;;;;;4997642;28;20034;-68
2024/01/09 04:10:24;;;;;;;5.93;2.70;;;-2.50;99.90;;;;;;5003213;28;20434;-66
2024/01/09 04:12:49;;;;;;;6.07;2.83;;;-2.50;99.90;;;;;;5004469;28;20057;-68
2024/01/09 04:15:15;;;;;;;7.05;3.10;;;-2.50;99.90;;;;;;4999712;28;20034;-66
2024/01/09 04:17:41;;;;;;;6.75;3.03;;;-2.50;99.90;;;;;;5010288;28;20538;-66
2024/01/09 04:20:09;;;;;;;6.65;3.03;;;-2.50;99.90;;;;;;5000381;28;20045;-66
2024/01/09 04:22:35;;;;;;;7.70;3.10;;;-2.50;99.90;;;;;;4996786;28;20132;-66
2024/01/09 04:25:00;;;;;;;6.72;2.92;;;-2.50;99.90;;;;;;4995705;28;20065;-66
2024/01/09 04:27:26;;;;;;;6.57;3.10;;;-2.50;99.90;;;;;;4998902;28;20117;-66
2024/01/09 04:29:51;;;;;;;7.50;3.20;;;-2.50;99.90;;;;;;4998252;23;20500;-75
2024/01/09 04:32:21;;;;;;;7.10;3.20;;;-2.50;99.90;;;;;;4984293;28;20116;-74
2024/01/09 04:34:46;;;;;;;7.00;3.13;;;-2.60;99.90;;;;;;4992359;28;20061;-74
2024/01/09 04:37:12;;;;;;;6.82;2.88;;;-2.60;99.90;;;;;;4972741;28;20085;-74
2024/01/09 04:39:37;;;;;;;6.55;3.03;;;-2.60;99.90;;;;;;4975487;28;20492;-74
2024/01/09 04:42:03;;;;;;;6.18;3.10;;;-2.60;99.90;;;;;;4984224;28;20038;-74
2024/01/09 04:44:28;;;;;;;6.93;3.28;;;-2.50;99.90;;;;;;4981016;28;20135;-74
2024/01/09 04:46:54;;;;;;;6.40;2.90;;;-2.60;99.90;;;;;;4987568;28;20046;-74
2024/01/09 04:49:23;;;;;;;5.97;3.10;;;-2.60;99.90;;;;;;4986881;28;20038;-74
2024/01/09 04:51:49;;;;;;;6.68;3.20;;;-2.60;99.90;;;;;;4987050;28;20039;-74
2024/01/09 04:54:15;;;;;;;5.88;2.90;;;-2.60;99.90;;;;;;4981318;28;20564;-74
2024/01/09 04:56:40;;;;;;;6.57;3.20;;;-2.60;99.90;;;;;;4990334;28;20042;-74
2024/01/09 04:59:06;;;;;;;6.88;2.95;;;-2.60;99.90;;;;;;4990188;28;20042;-74
2024/01/09 05:01:32;;;;;;;7.97;3.08;;;-2.60;99.90;;;;;;4958623;28;20053;-74
2024/01/09 05:03:57;;;;;;;7.72;3.10;;;-2.70;99.90;;;;;;4970410;28;20038;-74
2024/01/09 05:06:23;;;;;;;6.70;3.10;;;-2.70;99.90;;;;;;4974458;28;20093;-75
2024/01/09 05:08:48;;;;;;;6.68;3.05;;;-2.70;99.90;;;;;;4978992;28;20057;-75
2024/01/09 05:11:14;;;;;;;6.75;3.22;;;-2.70;99.90;;;;;;4964199;28;20084;-75
2024/01/09 05:13:40;;;;;;;6.68;3.28;;;-2.70;99.90;;;;;;4980949;28;20038;-74
2024/01/09 05:16:05;;;;;;;6.35;3.13;;;-2.70;99.90;;;;;;4971820;28;20098;-74
2024/01/09 05:18:32;;;;;;;7.88;3.25;;;-2.70;99.90;;;;;;4962500;28;20469;-74
2024/01/09 05:20:57;;;;;;;6.60;3.00;;;-2.30;99.90;;;;;;4958428;28;20043;-74
2024/01/09 05:23:23;;;;;;;5.97;2.83;;;-2.70;99.90;;;;;;4983974;28;20034;-74
2024/01/09 05:25:50;;;;;;;8.40;3.22;;;-1.80;99.90;;;;;;4985192;28;20078;-74
2024/01/09 05:28:17;;;;;;;9.05;3.40;;;-2.70;99.90;;;;;;4947655;28;20042;-74
2024/01/09 05:30:43;;;;;;;5.85;2.75;;;-2.80;99.90;;;;;;4968235;28;20031;-73
2024/01/09 05:33:08;;;;;;;8.18;3.53;;;-2.80;99.90;;;;;;4978814;28;20046;-74
2024/01/09 05:35:34;;;;;;;6.75;3.03;;;-2.80;99.90;;;;;;4979245;28;20074;-73
2024/01/09 05:38:00;;;;;;;5.80;2.88;;;-2.80;99.90;;;;;;4957550;28;20470;-74
2024/01/09 05:40:25;;;;;;;8.43;3.15;;;-2.80;99.90;;;;;;4968950;28;20081;-73
2024/01/09 05:42:51;;;;;;;7.07;3.20;;;-2.50;99.90;;;;;;4980422;28;20035;-73
2024/01/09 05:45:17;;;;;;;6.70;3.00;;;-2.80;99.90;;;;;;4983922;28;20034;-74
2024/01/09 05:47:43;;;;;;;7.65;3.13;;;-2.80;99.90;;;;;;4968457;28;20132;-74
2024/01/09 05:50:09;;;;;;;8.48;3.50;;;-2.80;99.90;;;;;;4974120;28;20051;-79
2024/01/09 05:52:36;;;;;;;7.93;3.20;;;-2.80;99.90;;;;;;4954150;28;20050;-74
2024/01/09 05:55:03;;;;;;;6.30;3.13;;;-2.90;99.90;;;;;;4949793;28;20093;-74
2024/01/09 05:57:29;;;;;;;8.00;3.30;;;-2.90;99.90;;;;;;4990767;28;20035;-74
2024/01/09 05:59:55;;;;;;;7.68;3.15;;;-2.90;99.90;;;;;;4974990;28;20090;-74
2024/01/09 06:02:21;;;;;;;7.13;3.17;;;-2.10;99.90;;;;;;4963718;28;20121;-74
2024/01/09 06:04:47;;;;;;;7.20;3.22;;;-2.90;99.90;;;;;;4984889;28;20042;-74
2024/01/09 06:07:15;;;;;;;8.00;3.00;;;-2.90;99.90;;;;;;4988374;28;20042;-74
2024/01/09 06:09:40;;;;;;;6.75;2.92;;;-2.60;99.90;;;;;;4972575;28;20050;-74
2024/01/09 06:12:07;;;;;;;7.32;2.80;;;-3.00;99.90;;;;;;4984493;28;20054;-74
2024/01/09 06:14:32;;;;;;;7.50;3.00;;;-3.00;99.90;;;;;;4974973;28;20076;-74
2024/01/09 06:16:58;;;;;;;7.60;2.97;;;-3.00;99.90;;;;;;4994364;28;20077;-74
2024/01/09 06:19:23;;;;;;;7.05;3.17;;;-3.00;99.90;;;;;;4990606;28;20569;-74
2024/01/09 06:21:49;;;;;;;8.43;3.20;;;-3.00;99.90;;;;;;4960862;28;20543;-74
2024/01/09 06:24:15;;;;;;;6.45;3.10;;;-3.00;99.90;;;;;;4981939;28;20054;-74
2024/01/09 06:26:41;;;;;;;6.57;3.13;;;-3.00;99.90;;;;;;4987886;28;20045;-74
2024/01/09 06:29:07;;;;;;;6.65;3.13;;;-3.00;99.90;;;;;;4960461;28;20085;-74
2024/01/09 06:31:32;;;;;;;7.45;3.15;;;-3.00;99.90;;;;;;4984640;28;20050;-74
2024/01/09 06:33:58;;;;;;;7.53;3.28;;;-2.60;99.90;;;;;;4994555;28;20041;-74
2024/01/09 06:36:23;;;;;;;8.10;3.80;;;-3.10;99.90;;;;;;4975696;28;20045;-74
2024/01/09 06:38:49;;;;;;;7.28;3.38;;;-2.80;99.90;;;;;;4970067;28;20042;-74
2024/01/09 06:41:15;;;;;;;6.18;3.15;;;-3.10;99.90;;;;;;4968931;28;20086;-74
2024/01/09 06:43:40;;;;;;;7.18;3.00;;;-3.10;99.90;;;;;;4972522;28;20100;-74
2024/01/09 06:46:06;;;;;;;6.88;3.00;;;-2.80;99.90;;;;;;4989228;28;20081;-74
2024/01/09 06:48:32;;;;;;;6.75;3.00;;;-3.10;99.90;;;;;;4976257;28;20041;-74
2024/01/09 06:50:57;;;;;;;9.35;3.22;;;-3.10;99.90;;;;;;4968572;28;20125;-74
2024/01/09 06:53:24;;;;;;;7.18;3.00;;;-3.10;99.90;;;;;;4976472;28;20046;-75
2024/01/09 06:55:49;;;;;;;6.70;3.10;;;-3.20;99.90;;;;;;4982754;28;20042;-74
2024/01/09 06:58:16;;;;;;;6.38;3.10;;;-3.10;99.90;;;;;;4972548;28;20492;-74
2024/01/09 07:00:43;;;;;;;7.63;3.05;;;-3.90;99.90;;;;;;4957110;28;20048;-74
2024/01/09 07:03:09;;;;;;;6.25;3.30;;;-3.20;99.90;;;;;;4969815;28;20328;-74
2024/01/09 07:05:35;;;;;;;6.63;3.05;;;-3.20;99.90;;;;;;4959263;28;20413;-74
2024/01/09 07:08:01;;;;;;;6.93;3.20;;;-3.20;99.90;;;;;;4951638;28;20042;-75
2024/01/09 07:10:26;;;;;;;5.47;2.95;;;-3.30;99.90;;;;;;4963480;28;20042;-74
2024/01/09 07:12:52;;;;;;;6.93;2.90;;;-3.20;99.90;;;;;;4945312;28;20501;-75
2024/01/09 07:15:18;;;;;;;7.65;3.00;;;-3.20;99.90;;;;;;4989193;28;20412;-74
2024/01/09 07:17:45;;;;;;;6.43;3.08;;;-3.20;99.90;;;;;;4967793;28;20054;-75
2024/01/09 07:20:11;;;;;;;6.60;3.25;;;-3.20;99.90;;;;;;4992690;28;20113;-74
2024/01/09 07:22:37;;;;;;;6.25;3.22;;;-2.80;99.90;;;;;;4979424;28;20189;-75
2024/01/09 07:25:03;;;;;;;5.72;2.67;;;-3.00;99.90;;;;;;4958708;28;20039;-75
2024/01/09 07:27:29;;;;;;;5.82;2.80;;;-3.20;99.90;;;;;;4993048;28;20061;-74
2024/01/09 07:29:54;;;;;;;6.85;3.53;;;-3.20;99.90;;;;;;4992769;28;20054;-75
2024/01/09 07:32:21;;;;;;;8.20;3.13;;;-3.20;99.90;;;;;;4991824;28;20504;-75
2024/01/09 07:34:48;;;;;;;6.47;3.13;;;-3.30;99.90;;;;;;4981974;28;20058;-74
2024/01/09 07:37:13;;;;;;;8.45;3.47;;;-3.30;99.90;;;;;;4948119;28;20055;-74
2024/01/09 07:39:39;;;;;;;8.70;5.20;;;-3.30;99.90;;;;;;4967458;28;20072;-75
2024/01/09 07:42:05;;;;;;;10.45;5.32;;;-3.30;99.90;;;;;;4957023;28;20184;-74
2024/01/09 07:44:31;;;;;;;7.13;3.83;;;-3.30;99.90;;;;;;4965678;28;20121;-74
2024/01/09 07:46:56;;;;;;;7.00;3.90;;;-3.30;99.90;;;;;;4983523;28;20070;-74
2024/01/09 07:49:22;;;;;;;8.57;4.57;;;-2.90;99.90;;;;;;4975091;28;20046;-74
2024/01/09 07:51:49;;;;;;;8.05;4.70;;;-3.30;99.90;;;;;;4992669;28;20412;-74
2024/01/09 07:54:14;;;;;;;7.28;4.05;;;-3.30;99.90;;;;;;4957784;28;20057;-74
2024/01/09 07:56:41;;;;;;;7.68;3.90;;;-3.30;99.90;;;;;;4980551;28;20039;-74
2024/01/09 07:59:06;;;;;;;10.32;5.25;;;-3.30;99.90;;;;;;4961513;28;20521;-74
2024/01/09 08:01:32;;;;;;;7.28;3.90;;;-3.30;99.90;;;;;;4962683;28;20050;-74
2024/01/09 08:03:57;;;;;;;11.75;6.22;;;-3.30;99.90;;;;;;4954975;28;20038;-74
2024/01/09 08:06:23;;;;;;;6.90;4.13;;;-3.30;99.90;;;;;;4970037;28;20077;-74
2024/01/09 08:08:49;;;;;;;8.73;4.40;;;-3.10;99.90;;;;;;4966256;28;20065;-74
2024/01/09 08:11:16;;;;;;;8.80;4.28;;;-3.30;99.90;;;;;;4974793;28;20053;-75
2024/01/09 08:13:41;;;;;;;9.77;5.55;;;-3.30;99.90;;;;;;4987415;28;20093;-74
2024/01/09 08:16:08;;;;;;;7.78;3.97;;;-3.30;99.90;;;;;;4968408;28;20046;-74
2024/01/09 08:18:34;;;;;;;7.22;3.50;;;-2.80;99.90;;;;;;4963914;28;20047;-73
2024/01/09 08:21:00;;;;;;;6.95;3.88;;;-3.30;99.90;;;;;;4965809;28;20041;-74
2024/01/09 08:23:26;;;;;;;7.60;3.95;;;-3.30;99.90;;;;;;4982816;28;20031;-73
2024/01/09 08:25:52;;;;;;;7.40;3.70;;;-3.30;99.90;;;;;;4986121;28;20026;-74
2024/01/09 08:28:18;;;;;;;7.85;3.83;;;-3.30;99.90;;;;;;4952138;28;20523;-73
2024/01/09 08:30:44;;;;;;;9.43;3.85;;;-3.30;99.90;;;;;;4963977;28;20046;-74
2024/01/09 08:33:10;;;;;;;7.15;3.67;;;-3.30;99.90;;;;;;4966934;28;20093;-73
2024/01/09 08:35:35;;;;;;;7.35;3.45;;;-3.30;99.90;;;;;;4966865;28;20046;-74
2024/01/09 08:38:01;;;;;;;7.55;3.28;;;-3.30;99.90;;;;;;4971422;28;20046;-74
2024/01/09 08:40:26;;;;;;;7.35;3.60;;;-3.30;99.90;;;;;;4981469;28;20042;-74
2024/01/09 08:42:52;;;;;;;6.95;2.95;;;-3.30;99.90;;;;;;4985425;28;20040;-74
2024/01/09 08:45:18;;;;;;;6.50;3.42;;;-3.10;99.90;;;;;;4982209;28;20046;-74
2024/01/09 08:47:44;;;;;;;9.55;3.75;;;-3.30;99.90;;;;;;4983544;28;20532;-75
2024/01/09 08:50:10;;;;;;;13.85;7.25;;;-3.30;99.90;;;;;;4986644;28;20043;-74
2024/01/09 08:52:36;;;;;;;20.70;9.93;;;-3.10;99.90;;;;;;4974146;28;20129;-74
2024/01/09 08:55:04;;;;;;;9.27;4.43;;;-2.00;99.90;;;;;;4956237;28;20050;-74
2024/01/09 08:57:30;;;;;;;8.65;3.38;;;;;;;;;;4970451;28;20046;-75
2024/01/09 08:59:57;;;;;;;9.60;4.28;;;-3.20;99.90;;;;;;4971279;28;20057;-74
2024/01/09 09:02:23;;;;;;;8.85;4.38;;;-3.20;99.90;;;;;;4972112;28;20452;-73
2024/01/09 09:04:50;;;;;;;8.98;4.93;;;-3.20;99.90;;;;;;4974357;28;20514;-73
2024/01/09 09:07:18;;;;;;;7.35;3.58;;;-3.20;99.90;;;;;;4944021;28;20456;-74
2024/01/09 09:09:44;;;;;;;9.02;3.83;;;-3.20;99.90;;;;;;4985023;28;20569;-74
2024/01/09 09:12:11;;;;;;;10.68;5.15;;;-3.10;99.90;;;;;;4984571;28;20042;-74
2024/01/09 09:14:40;;;;;;;6.93;3.53;;;-3.10;99.90;;;;;;4977028;28;20038;-74
2024/01/09 09:17:08;;;;;;;8.45;4.22;;;-2.90;99.90;;;;;;4988496;28;20058;-74
2024/01/09 09:19:33;;;;;;;7.25;3.40;;;-3.10;99.90;;;;;;4951469;28;20370;-75
2024/01/09 09:22:01;;;;;;;8.52;3.78;;;-3.10;99.90;;;;;;4981874;28;20096;-75
2024/01/09 09:24:26;;;;;;;5.85;3.00;;;-3.10;99.90;;;;;;4982806;28;20058;-75
2024/01/09 09:26:53;;;;;;;5.50;2.85;;;-3.10;99.90;;;;;;4981562;28;20035;-75
2024/01/09 09:29:19;;;;;;;6.30;3.20;;;-3.10;99.90;;;;;;4977397;28;20042;-74
2024/01/09 09:31:44;;;;;;;8.20;4.80;;;-3.10;99.90;;;;;;4963845;28;20058;-74
2024/01/09 09:34:10;;;;;;;7.38;3.85;;;-3.00;99.90;;;;;;4973147;28;20046;-76
2024/01/09 09:36:36;;;;;;;7.85;3.50;;;-3.00;99.90;;;;;;4967085;28;20442;-74
2024/01/09 09:39:02;;;;;;;9.23;3.85;;;-3.00;99.90;;;;;;4982888;28;20094;-73
2024/01/09 09:41:29;;;;;;;6.93;3.42;;;-2.90;99.90;;;;;;4985350;28;20039;-74
2024/01/09 09:43:56;;;;;;;9.65;3.75;;;-2.90;99.90;;;;;;4964015;28;20039;-74
2024/01/09 09:46:28;;;;;;;22.80;3.83;;;-2.90;99.90;;;;;;4981426;28;20563;-73
2024/01/09 09:48:55;;;;;;;13.32;6.53;;;-2.90;99.90;;;;;;4971375;28;20057;-74
2024/01/09 09:51:22;;;;;;;10.98;5.25;;;-2.90;99.90;;;;;;4980696;28;20489;-74
2024/01/09 09:53:55;;;;;;;10.35;4.15;;;-2.90;99.90;;;;;;4983464;28;20035;-74
2024/01/09 09:56:21;;;;;;;8.23;4.23;;;-2.80;99.90;;;;;;4973876;28;20059;-73
2024/01/09 09:58:47;;;;;;;6.25;3.28;;;-2.80;99.90;;;;;;4984878;28;20056;-73
2024/01/09 10:01:14;;;;;;;5.97;3.03;;;-2.80;99.90;;;;;;4991326;28;20034;-73
2024/01/09 10:04:12;;;;;;;7.20;3.05;;;-2.80;99.90;;;;;;4992185;28;20054;-74
2024/01/09 10:06:42;;;;;;;6.05;2.83;;;-2.80;99.90;;;;;;4979199;28;20432;-74
2024/01/09 10:09:13;;;;;;;5.80;2.58;;;-2.80;99.90;;;;;;4993008;28;20444;-74
2024/01/09 10:11:39;;;;;;;5.25;2.35;;;-2.70;99.90;;;;;;4972786;28;20047;-75
2024/01/09 10:14:08;;;;;;;6.05;2.80;;;-2.70;99.90;;;;;;4988585;28;20117;-75
2024/01/09 10:16:54;;;;;;;6.35;2.95;;;-2.70;99.90;;;;;;4968228;28;20505;-74
2024/01/09 10:19:22;;;;;;;8.60;2.92;;;-2.70;99.90;;;;;;4991526;28;20081;-73
2024/01/09 10:21:48;;;;;;;7.10;2.80;;;-2.70;99.90;;;;;;4986998;28;20595;-74
2024/01/09 10:24:15;;;;;;;7.43;3.15;;;-2.70;99.90;;;;;;4988691;28;20038;-74
2024/01/09 10:26:41;;;;;;;7.45;3.25;;;-2.60;99.90;;;;;;4990515;28;20068;-73
2024/01/09 10:29:09;;;;;;;10.20;4.57;;;-2.60;99.90;;;;;;4999183;22;20065;-68
2024/01/09 10:31:34;;;;;;;9.13;4.70;;;-2.60;99.90;;;;;;5005956;28;20100;-68
2024/01/09 10:34:00;;;;;;;7.13;3.72;;;-2.60;99.90;;;;;;5010384;28;20449;-69
2024/01/09 10:36:27;;;;;;;6.65;3.38;;;-2.60;99.90;;;;;;5012407;28;20030;-69
2024/01/09 10:39:05;;;;;;;6.15;3.05;;;-2.50;99.90;;;;;;5009906;28;20045;-67
2024/01/09 10:41:32;;;;;;;10.52;2.70;;;-2.50;99.90;;;;;;5002325;28;20105;-68
2024/01/09 10:43:59;;;;;;;7.55;3.03;;;-2.50;99.90;;;;;;5007544;28;20092;-68
2024/01/09 10:46:26;;;;;;;7.55;4.00;;;-2.50;99.90;;;;;;4997885;28;20073;-68
2024/01/09 10:48:56;;;;;;;8.35;4.47;;;-2.50;99.90;;;;;;5012329;28;20037;-68
2024/01/09 10:51:23;;;;;;;6.68;3.00;;;-2.50;99.90;;;;;;4985242;28;20038;-69
2024/01/09 10:53:51;;;;;;;7.72;3.88;;;-2.50;99.90;;;;;;5006660;28;20077;-67
2024/01/09 10:56:22;;;;;;;6.82;3.40;;;-2.40;99.90;;;;;;5003893;28;20042;-68
2024/01/09 10:58:50;;;;;;;5.68;2.80;;;-2.40;99.90;;;;;;5009121;28;20046;-68
2024/01/09 11:01:15;;;;;;;6.18;3.17;;;-2.40;99.90;;;;;;5010573;28;20092;-68
2024/01/09 11:03:41;;;;;;;8.48;3.28;;;-2.30;99.90;;;;;;5010596;28;20486;-68
2024/01/09 11:06:09;;;;;;;6.07;3.30;;;-2.30;99.90;;;;;;5011062;28;20050;-68
2024/01/09 11:08:35;;;;;;;5.00;2.70;;;-2.30;99.90;;;;;;5011026;28;20053;-68
2024/01/09 11:11:10;;;;;;;8.27;2.90;;;-2.30;99.90;;;;;;5009653;28;20552;-68
2024/01/09 11:13:38;;;;;;;6.25;2.97;;;-2.30;99.90;;;;;;5010067;28;20092;-68
2024/01/09 11:16:06;;;;;;;6.40;2.97;;;-2.30;99.90;;;;;;4994601;28;20041;-69
2024/01/09 11:18:34;;;;;;;5.15;2.75;;;-2.20;99.90;;;;;;5002657;28;20042;-69
2024/01/09 11:21:01;;;;;;;6.43;2.88;;;-2.20;99.90;;;;;;5000649;28;20042;-69
2024/01/09 11:23:51;;;;;;;6.53;2.72;;;-2.20;99.90;;;;;;5001110;28;20038;-69
2024/01/09 11:26:18;;;;;;;4.85;2.67;;;-2.20;99.90;;;;;;5002421;28;20426;-68
2024/01/09 11:28:45;;;;;;;5.72;2.60;;;-2.10;99.90;;;;;;5012517;28;20040;-69
2024/01/09 11:31:20;;;;;;;5.72;2.75;;;-2.10;99.90;;;;;;5007770;28;20034;-68
2024/01/09 11:33:51;;;;;;;5.72;2.50;;;-2.10;99.90;;;;;;5009444;28;20605;-68
2024/01/09 11:36:39;;;;;;;5.53;2.67;;;-2.10;99.90;;;;;;4993619;28;20088;-68
2024/01/09 11:39:07;;;;;;;4.40;2.33;;;-2.00;99.90;;;;;;5010544;28;20080;-68
2024/01/09 11:41:35;;;;;;;4.65;2.33;;;-2.00;99.90;;;;;;5011867;28;20141;-68
2024/01/09 11:44:02;;;;;;;7.13;2.63;;;-2.00;99.90;;;;;;5010190;28;20391;-68
2024/01/09 11:46:35;;;;;;;5.20;2.70;;;-1.90;99.90;;;;;;5003048;28;20042;-68
2024/01/09 11:49:01;;;;;;;6.32;2.80;;;-1.90;99.90;;;;;;5008246;28;20490;-68
2024/01/09 11:51:29;;;;;;;7.05;2.60;;;-1.90;99.90;;;;;;4999991;28;20042;-68
2024/01/09 11:53:58;;;;;;;6.38;2.33;;;-1.80;99.90;;;;;;5009747;28;20034;-68
2024/01/09 11:56:24;;;;;;;5.65;2.50;;;-1.70;99.90;;;;;;5008667;28;20088;-68
2024/01/09 11:58:52;;;;;;;7.70;2.50;;;-1.70;99.90;;;;;;5011569;28;20034;-68
2024/01/09 12:01:22;;;;;;;5.55;2.53;;;-1.60;99.90;;;;;;5008879;28;20045;-68
2024/01/09 12:03:54;;;;;;;6.03;2.70;;;-1.50;99.90;;;;;;5011644;28;20429;-68
2024/01/09 12:06:24;;;;;;;;;;;-1.40;99.90;;;;;;5005067;28;20034;-68
2024/01/09 12:08:51;;;;;;;5.75;2.42;;;-1.40;99.90;;;;;;5009081;28;20456;-68
2024/01/09 12:11:18;;;;;;;7.55;2.35;;;-1.30;99.90;;;;;;5010226;28;20038;-68
2024/01/09 12:13:44;;;;;;;5.90;2.70;;;-1.20;99.90;;;;;;5004891;28;20041;-68
2024/01/09 12:16:21;;;;;;;5.13;2.40;;;-1.10;99.90;;;;;;5008833;28;20041;-69
2024/01/09 12:18:48;;;;;;;4.93;2.50;;;-1.10;99.90;;;;;;4995423;28;20049;-69
2024/01/09 12:21:15;;;;;;;4.90;2.30;;;-1.00;99.90;;;;;;4999635;28;20501;-68
2024/01/09 12:23:41;;;;;;;7.00;2.58;;;-0.90;99.90;;;;;;5004969;28;20043;-69
2024/01/09 12:26:07;;;;;;;7.05;2.85;;;-0.80;99.90;;;;;;5005038;28;20141;-69
2024/01/09 12:28:33;;;;;;;5.72;2.90;;;-0.70;99.90;;;;;;5010024;28;20033;-66
2024/01/09 12:31:02;;;;;;;7.90;3.03;;;-0.60;99.90;;;;;;5002207;28;20046;-66
2024/01/09 12:33:29;;;;;;;5.28;2.50;;;-0.50;99.90;;;;;;5008999;28;20038;-66
2024/01/09 12:35:56;;;;;;;6.78;2.80;;;-0.30;99.90;;;;;;5002088;28;20078;-65
2024/01/09 12:38:22;;;;;;;5.78;2.50;;;-0.10;99.90;;;;;;5006722;28;20080;-66
2024/01/09 12:41:00;;;;;;;6.00;2.58;;;0.10;99.90;;;;;;5011020;28;20035;-66
2024/01/09 12:43:33;;;;;;;5.95;2.42;;;0.30;99.90;;;;;;5077742;28;20383;-67
2024/01/09 12:46:04;;;;;;;5.57;2.70;;;0.50;99.90;;;;;;5048820;28;20559;-67